createdAt,value
2022-07-28T00:00:23.035Z,3.63
2022-07-28T00:03:08.870Z,3.50
2022-07-28T00:05:36.638Z,3.90
2022-07-28T00:08:04.509Z,4.45
2022-07-28T00:10:32.462Z,4.22
2022-07-28T00:13:00.517Z,3.58
2022-07-28T00:15:28.457Z,4.13
2022-07-28T00:17:56.073Z,4.20
2022-07-28T00:20:23.879Z,4.13
2022-07-28T00:22:51.586Z,4.68
2022-07-28T00:25:19.307Z,4.32
2022-07-28T00:27:46.876Z,3.95
2022-07-28T00:30:14.896Z,4.15
2022-07-28T00:32:42.673Z,3.92
2022-07-28T00:35:10.380Z,3.53
2022-07-28T00:37:39.872Z,3.50
2022-07-28T00:40:08.407Z,2.83
2022-07-28T00:42:35.991Z,3.13
2022-07-28T00:45:04.194Z,2.83
2022-07-28T00:47:33.788Z,2.40
2022-07-28T00:50:02.778Z,2.80
2022-07-28T00:52:30.673Z,2.10
2022-07-28T00:54:59.152Z,2.00
2022-07-28T00:57:26.709Z,2.20
2022-07-28T00:59:54.577Z,2.45
2022-07-28T01:02:22.428Z,2.17
2022-07-28T01:04:50.247Z,2.67
2022-07-28T01:07:26.765Z,2.40
2022-07-28T01:10:04.074Z,2.50
2022-07-28T01:12:41.768Z,2.65
2022-07-28T01:15:15.411Z,3.03
2022-07-28T01:17:49.059Z,3.08
2022-07-28T01:20:22.414Z,2.75
2022-07-28T01:23:02.538Z,3.00
2022-07-28T01:25:30.343Z,3.92
2022-07-28T01:28:18.010Z,3.28
2022-07-28T01:30:48.050Z,3.38
2022-07-28T01:33:21.038Z,3.42
2022-07-28T01:35:59.598Z,2.65
2022-07-28T01:38:46.455Z,2.38
2022-07-28T01:41:17.864Z,2.55
2022-07-28T01:43:49.202Z,2.05
2022-07-28T01:46:17.701Z,1.83
2022-07-28T01:48:46.940Z,2.10
2022-07-28T01:51:15.403Z,2.30
2022-07-28T01:53:44.153Z,2.30
2022-07-28T01:56:12.350Z,1.95
2022-07-28T01:58:41.969Z,1.90
2022-07-28T02:01:11.221Z,1.73
2022-07-28T02:03:40.248Z,1.77
2022-07-28T02:06:08.286Z,2.00
2022-07-28T02:08:36.511Z,1.92
2022-07-28T02:11:23.045Z,2.20
2022-07-28T02:13:52.215Z,1.73
2022-07-28T02:16:22.016Z,1.95
2022-07-28T02:18:50.552Z,2.28
2022-07-28T02:21:18.810Z,1.85
2022-07-28T02:23:48.235Z,1.88
2022-07-28T02:26:18.927Z,1.88
2022-07-28T02:28:51.324Z,2.30
2022-07-28T02:31:25.968Z,2.40
2022-07-28T02:33:58.870Z,2.25
2022-07-28T02:36:38.151Z,2.00
2022-07-28T02:39:12.820Z,2.25
2022-07-28T02:41:42.486Z,2.00
2022-07-28T02:44:15.222Z,2.28
2022-07-28T02:46:47.557Z,1.65
2022-07-28T02:49:18.970Z,2.40
2022-07-28T02:51:47.043Z,2.25
2022-07-28T02:54:15.805Z,2.03
2022-07-28T02:56:53.475Z,2.05
2022-07-28T02:59:22.220Z,1.70
2022-07-28T03:01:50.386Z,2.22
2022-07-28T03:04:38.888Z,2.03
2022-07-28T03:07:06.822Z,2.00
2022-07-28T03:09:42.188Z,2.38
2022-07-28T03:12:10.809Z,2.33
2022-07-28T03:14:38.660Z,1.85
2022-07-28T03:17:06.646Z,2.13
2022-07-28T03:19:34.771Z,2.78
2022-07-28T03:22:02.373Z,2.65
2022-07-28T03:24:31.772Z,2.15
2022-07-28T03:26:59.587Z,2.30
2022-07-28T03:29:28.876Z,2.53
2022-07-28T03:31:57.425Z,2.63
2022-07-28T03:34:25.437Z,2.30
2022-07-28T03:36:55.891Z,2.38
2022-07-28T03:39:25.404Z,2.33
2022-07-28T03:42:00.686Z,2.60
2022-07-28T03:44:29.829Z,2.42
2022-07-28T03:46:57.782Z,2.72
2022-07-28T03:49:25.533Z,2.42
2022-07-28T03:51:53.124Z,2.45
2022-07-28T03:54:20.774Z,2.65
2022-07-28T03:56:48.544Z,2.70
2022-07-28T03:59:16.222Z,3.65
2022-07-28T04:01:45.294Z,5.13
2022-07-28T04:04:13.556Z,4.65
2022-07-28T04:06:41.302Z,2.50
2022-07-28T04:09:08.870Z,2.60
2022-07-28T04:11:36.568Z,2.70
2022-07-28T04:14:04.232Z,3.05
2022-07-28T04:16:31.839Z,2.35
2022-07-28T04:18:59.880Z,2.47
2022-07-28T04:21:27.488Z,3.13
2022-07-28T04:23:59.827Z,2.63
2022-07-28T04:26:29.567Z,4.45
2022-07-28T04:28:57.132Z,3.25
2022-07-28T04:31:24.738Z,3.53
2022-07-28T04:33:52.556Z,2.60
2022-07-28T04:36:20.833Z,3.80
2022-07-28T04:38:48.544Z,3.70
2022-07-28T04:41:16.301Z,3.67
2022-07-28T04:43:45.414Z,3.13
2022-07-28T04:46:15.160Z,3.60
2022-07-28T04:48:43.815Z,4.03
2022-07-28T04:51:11.582Z,3.15
2022-07-28T04:53:39.170Z,3.97
2022-07-28T04:56:07.114Z,4.25
2022-07-28T04:58:35.632Z,3.72
2022-07-28T05:01:03.404Z,3.00
2022-07-28T05:03:35.975Z,2.95
2022-07-28T05:06:05.992Z,3.28
2022-07-28T05:08:33.786Z,3.83
2022-07-28T05:11:02.937Z,2.70
2022-07-28T05:13:34.036Z,2.95
2022-07-28T05:16:03.727Z,2.70
2022-07-28T05:18:31.416Z,2.90
2022-07-28T05:20:59.113Z,2.88
2022-07-28T05:23:26.893Z,3.35
2022-07-28T05:25:54.567Z,2.95
2022-07-28T05:28:22.081Z,2.70
2022-07-28T05:30:49.862Z,2.75
2022-07-28T05:33:17.543Z,2.47
2022-07-28T05:35:46.069Z,3.03
2022-07-28T05:38:14.035Z,2.47
2022-07-28T05:40:41.731Z,3.30
2022-07-28T05:43:09.275Z,2.80
2022-07-28T05:45:37.188Z,2.85
2022-07-28T05:48:04.864Z,2.72
2022-07-28T05:50:32.593Z,3.00
2022-07-28T05:53:00.472Z,2.50
2022-07-28T05:55:28.301Z,2.28
2022-07-28T05:57:55.906Z,2.75
2022-07-28T06:00:24.263Z,2.50
2022-07-28T06:02:51.863Z,2.95
2022-07-28T06:05:21.071Z,3.08
2022-07-28T06:07:50.063Z,2.47
2022-07-28T06:10:19.620Z,2.58
2022-07-28T06:12:51.712Z,4.05
2022-07-28T06:15:21.640Z,2.85
2022-07-28T06:17:52.523Z,2.83
2022-07-28T06:20:21.515Z,2.92
2022-07-28T06:22:50.510Z,3.03
2022-07-28T06:25:22.364Z,3.72
2022-07-28T06:27:50.950Z,5.57
2022-07-28T06:30:19.346Z,3.15
2022-07-28T06:32:47.376Z,3.05
2022-07-28T06:35:16.691Z,4.10
2022-07-28T06:37:45.085Z,3.53
2022-07-28T06:40:13.091Z,3.67
2022-07-28T06:42:41.169Z,3.20
2022-07-28T06:45:09.996Z,3.05
2022-07-28T06:47:49.825Z,3.10
2022-07-28T06:50:25.605Z,2.85
2022-07-28T06:52:56.345Z,3.10
2022-07-28T06:55:24.058Z,3.20
2022-07-28T06:57:51.959Z,3.17
2022-07-28T07:00:19.817Z,2.88
2022-07-28T07:02:47.682Z,3.15
2022-07-28T07:05:15.735Z,2.70
2022-07-28T07:07:47.443Z,2.63
2022-07-28T07:10:15.193Z,2.92
2022-07-28T07:12:42.753Z,2.45
2022-07-28T07:15:10.962Z,3.13
2022-07-28T07:17:38.722Z,2.08
2022-07-28T07:20:07.128Z,2.33
2022-07-28T07:22:35.583Z,2.30
2022-07-28T07:25:10.749Z,2.50
2022-07-28T07:27:38.985Z,2.50
2022-07-28T07:30:07.641Z,2.00
2022-07-28T07:32:35.496Z,2.13
2022-07-28T07:35:03.490Z,2.60
2022-07-28T07:37:32.545Z,2.10
2022-07-28T07:40:00.718Z,2.30
2022-07-28T07:42:28.649Z,2.00
2022-07-28T07:44:59.710Z,1.88
2022-07-28T07:47:27.287Z,1.52
2022-07-28T07:49:55.264Z,2.10
2022-07-28T07:52:22.855Z,2.40
2022-07-28T07:54:50.732Z,2.22
2022-07-28T07:57:18.536Z,1.88
2022-07-28T07:59:46.291Z,2.00
2022-07-28T08:02:13.858Z,1.80
2022-07-28T08:04:41.767Z,1.80
2022-07-28T08:07:10.649Z,1.80
2022-07-28T08:09:38.265Z,1.58
2022-07-28T08:12:06.369Z,1.88
2022-07-28T08:14:34.017Z,2.53
2022-07-28T08:17:01.963Z,1.85
2022-07-28T08:19:29.861Z,2.10
2022-07-28T08:21:57.696Z,1.90
2022-07-28T08:24:32.588Z,2.15
2022-07-28T08:27:02.923Z,1.80
2022-07-28T08:29:30.591Z,4.43
2022-07-28T08:31:58.218Z,1.92
2022-07-28T08:34:33.263Z,1.90
2022-07-28T08:37:02.714Z,1.50
2022-07-28T08:39:31.276Z,1.98
2022-07-28T08:42:04.808Z,1.52
2022-07-28T08:44:41.433Z,1.30
2022-07-28T08:47:12.460Z,1.17
2022-07-28T08:49:42.605Z,1.60
2022-07-28T08:54:38.072Z,1.40
2022-07-28T08:57:05.861Z,1.52
2022-07-28T08:59:33.605Z,1.55
2022-07-28T09:02:01.212Z,1.63
2022-07-28T09:04:29.030Z,1.40
2022-07-28T09:06:56.581Z,1.58
2022-07-28T09:09:24.295Z,1.90
2022-07-28T09:11:52.295Z,1.60
2022-07-28T09:14:19.971Z,2.10
2022-07-28T09:16:47.550Z,1.40
2022-07-28T09:19:15.396Z,1.60
2022-07-28T09:21:43.807Z,1.67
2022-07-28T09:24:11.576Z,1.45
2022-07-28T09:26:58.258Z,1.95
2022-07-28T09:29:25.908Z,1.58
2022-07-28T09:31:57.784Z,1.80
2022-07-28T09:34:25.530Z,1.67
2022-07-28T09:36:53.185Z,1.60
2022-07-28T09:39:34.503Z,3.25
2022-07-28T09:42:02.360Z,1.65
2022-07-28T09:44:30.267Z,1.80
2022-07-28T09:46:58.056Z,2.35
2022-07-28T09:49:41.180Z,2.10
2022-07-28T09:52:10.864Z,1.92
2022-07-28T09:54:40.959Z,2.20
2022-07-28T09:57:11.695Z,1.73
2022-07-28T09:59:41.615Z,1.75
2022-07-28T10:02:12.169Z,1.60
2022-07-28T10:04:43.301Z,2.17
2022-07-28T10:07:17.048Z,2.13
2022-07-28T10:09:45.083Z,2.13
2022-07-28T10:12:23.371Z,1.80
2022-07-28T10:14:52.316Z,2.03
2022-07-28T10:17:29.196Z,1.63
2022-07-28T10:20:01.352Z,1.65
2022-07-28T10:22:32.988Z,2.22
2022-07-28T10:25:07.681Z,1.42
2022-07-28T10:27:35.888Z,2.40
2022-07-28T10:30:05.219Z,2.47
2022-07-28T10:32:38.194Z,2.23
2022-07-28T10:35:08.612Z,1.90
2022-07-28T10:40:10.041Z,15.30
2022-07-28T10:42:40.634Z,10.43
2022-07-28T10:45:09.950Z,3.70
2022-07-28T10:47:37.540Z,10.20
2022-07-28T10:50:08.596Z,2.78
2022-07-28T10:52:48.924Z,2.47
2022-07-28T10:55:24.144Z,2.03
2022-07-28T10:58:02.067Z,2.78
2022-07-28T11:01:04.979Z,4.20
2022-07-28T11:03:42.549Z,6.97
2022-07-28T11:06:30.482Z,18.70
2022-07-28T11:09:21.472Z,23.25
2022-07-28T11:11:53.293Z,4.78
2022-07-28T11:14:24.774Z,4.13
2022-07-28T11:17:01.704Z,3.13
2022-07-28T11:19:40.366Z,8.98
2022-07-28T11:22:19.334Z,5.85
2022-07-28T11:25:19.269Z,2.55
2022-07-28T11:27:51.666Z,2.72
2022-07-28T11:30:21.314Z,3.53
2022-07-28T11:32:53.446Z,3.67
2022-07-28T11:35:21.884Z,2.63
2022-07-28T11:38:02.100Z,2.63
2022-07-28T11:40:31.015Z,2.95
2022-07-28T11:43:19.489Z,2.65
2022-07-28T11:48:25.297Z,2.47
2022-07-28T11:51:05.269Z,2.30
2022-07-28T11:53:40.344Z,2.80
2022-07-28T11:56:09.459Z,2.58
2022-07-28T11:58:37.490Z,2.60
2022-07-28T12:01:17.313Z,2.38
2022-07-28T12:03:49.710Z,2.72
2022-07-28T12:06:27.201Z,2.35
2022-07-28T12:08:57.688Z,2.25
2022-07-28T12:11:25.957Z,2.33
2022-07-28T12:14:01.438Z,2.10
2022-07-28T12:16:31.598Z,2.28
2022-07-28T12:19:01.613Z,2.17
2022-07-28T12:21:53.314Z,2.17
2022-07-28T12:24:44.679Z,2.35
2022-07-28T12:27:14.702Z,2.10
2022-07-28T12:29:43.222Z,1.80
2022-07-28T12:32:10.955Z,2.33
2022-07-28T12:34:40.625Z,2.25
2022-07-28T12:37:09.981Z,2.08
2022-07-28T12:39:42.929Z,2.20
2022-07-28T12:42:11.976Z,2.42
2022-07-28T12:44:43.407Z,2.28
2022-07-28T12:47:12.173Z,2.30
2022-07-28T12:49:41.071Z,2.90
2022-07-28T12:52:16.025Z,2.70
2022-07-28T12:54:52.948Z,2.40
2022-07-28T12:57:48.908Z,2.60
2022-07-28T13:00:19.961Z,2.60
2022-07-28T13:02:48.399Z,2.20
2022-07-28T13:05:28.280Z,2.30
2022-07-28T13:08:00.166Z,2.75
2022-07-28T13:10:30.308Z,2.83
2022-07-28T13:13:03.150Z,3.15
2022-07-28T13:15:31.728Z,2.63
2022-07-28T13:18:00.223Z,2.70
2022-07-28T13:20:28.642Z,3.15
2022-07-28T13:22:57.438Z,3.17
2022-07-28T13:25:25.430Z,2.92
2022-07-28T13:27:55.058Z,3.13
2022-07-28T13:30:23.993Z,2.97
2022-07-28T13:32:54.741Z,2.92
2022-07-28T13:35:23.001Z,3.20
2022-07-28T13:37:50.788Z,2.80
2022-07-28T13:40:18.565Z,3.00
2022-07-28T13:42:53.449Z,2.85
2022-07-28T13:45:25.320Z,3.13
2022-07-28T13:47:57.683Z,2.97
2022-07-28T13:50:25.903Z,3.50
2022-07-28T13:52:53.737Z,3.00
2022-07-28T13:55:22.710Z,2.90
2022-07-28T13:57:51.644Z,3.55
2022-07-28T14:00:22.791Z,3.97
2022-07-28T14:02:50.626Z,3.47
2022-07-28T14:05:18.624Z,3.28
2022-07-28T14:07:48.225Z,3.03
2022-07-28T14:10:18.336Z,3.40
2022-07-28T14:12:46.804Z,2.78
2022-07-28T14:15:14.835Z,3.50
2022-07-28T14:17:44.842Z,3.03
2022-07-28T14:22:41.278Z,3.28
2022-07-28T14:25:09.058Z,3.90
2022-07-28T14:27:36.902Z,3.25
2022-07-28T14:30:05.481Z,3.50
2022-07-28T14:32:33.083Z,3.50
2022-07-28T14:35:01.980Z,3.22
2022-07-28T14:37:47.181Z,2.92
2022-07-28T14:40:18.117Z,2.97
2022-07-28T14:42:45.933Z,3.35
2022-07-28T14:45:14.345Z,3.00
2022-07-28T14:47:44.211Z,3.10
2022-07-28T14:50:13.736Z,3.10
2022-07-28T14:52:45.113Z,3.22
2022-07-28T14:55:13.616Z,3.45
2022-07-28T14:57:51.931Z,3.10
2022-07-28T15:00:22.986Z,3.42
2022-07-28T15:02:52.801Z,3.33
2022-07-28T15:05:21.716Z,3.50
2022-07-28T15:07:51.895Z,3.20
2022-07-28T15:10:19.988Z,3.45
2022-07-28T15:12:47.731Z,3.30
2022-07-28T15:15:15.560Z,3.40
2022-07-28T15:17:43.734Z,3.20
2022-07-28T15:20:11.718Z,3.22
2022-07-28T15:22:40.201Z,3.60
2022-07-28T15:25:08.054Z,2.90
2022-07-28T15:27:35.611Z,2.92
2022-07-28T15:30:03.602Z,3.20
2022-07-28T15:32:39.836Z,2.80
2022-07-28T15:35:22.314Z,3.58
2022-07-28T15:37:49.882Z,3.80
2022-07-28T15:40:17.546Z,3.63
2022-07-28T15:42:45.359Z,3.97
2022-07-28T15:45:13.167Z,3.42
2022-07-28T15:47:40.740Z,3.47
2022-07-28T15:50:08.980Z,3.15
2022-07-28T15:52:36.615Z,3.10
2022-07-28T15:55:04.698Z,3.55
2022-07-28T15:57:38.002Z,3.85
2022-07-28T16:00:06.940Z,3.10
2022-07-28T16:02:34.828Z,3.15
2022-07-28T16:05:02.491Z,3.10
2022-07-28T16:07:31.137Z,3.38
2022-07-28T16:09:59.958Z,3.67
2022-07-28T16:12:27.661Z,3.10
2022-07-28T16:14:55.546Z,3.65
2022-07-28T16:17:23.686Z,3.00
2022-07-28T16:19:51.738Z,3.25
2022-07-28T16:22:20.034Z,3.63
2022-07-28T16:24:48.319Z,3.60
2022-07-28T16:27:15.951Z,2.90
2022-07-28T16:29:44.801Z,3.50
2022-07-28T16:32:12.818Z,3.90
2022-07-28T16:34:40.483Z,3.00
2022-07-28T16:37:08.170Z,2.90
2022-07-28T16:39:35.976Z,3.45
2022-07-28T16:42:03.523Z,3.25
2022-07-28T16:44:31.592Z,3.25
2022-07-28T16:46:59.493Z,3.22
2022-07-28T16:49:27.302Z,3.40
2022-07-28T16:51:55.546Z,3.25
2022-07-28T16:54:23.420Z,3.28
2022-07-28T16:56:51.238Z,3.13
2022-07-28T16:59:18.894Z,3.53
2022-07-28T17:01:47.823Z,3.38
2022-07-28T17:04:16.572Z,3.00
2022-07-28T17:06:45.119Z,3.05
2022-07-28T17:09:13.696Z,3.70
2022-07-28T17:11:42.398Z,3.30
2022-07-28T17:14:10.716Z,3.20
2022-07-28T17:16:38.883Z,3.33
2022-07-28T17:19:06.614Z,3.20
2022-07-28T17:21:35.911Z,3.10
2022-07-28T17:24:04.374Z,3.00
2022-07-28T17:29:20.813Z,3.85
2022-07-28T17:31:50.210Z,3.40
2022-07-28T17:34:18.511Z,3.30
2022-07-28T17:36:47.416Z,3.25
2022-07-28T17:39:14.987Z,3.55
2022-07-28T17:41:42.669Z,3.40
2022-07-28T17:44:10.539Z,3.55
2022-07-28T17:46:38.569Z,3.67
2022-07-28T17:49:07.935Z,3.90
2022-07-28T17:51:37.410Z,3.90
2022-07-28T17:54:05.441Z,3.50
2022-07-28T17:56:36.582Z,4.30
2022-07-28T17:59:06.023Z,3.50
2022-07-28T18:01:33.705Z,4.00
2022-07-28T18:04:01.389Z,3.60
2022-07-28T18:06:31.961Z,4.07
2022-07-28T18:09:06.067Z,3.70
2022-07-28T18:11:38.607Z,3.90
2022-07-28T18:14:43.956Z,4.00
2022-07-28T18:17:11.805Z,3.80
2022-07-28T18:19:44.975Z,3.70
2022-07-28T18:22:13.175Z,3.90
2022-07-28T18:24:40.707Z,4.05
2022-07-28T18:27:08.482Z,3.80
2022-07-28T18:29:37.773Z,4.20
2022-07-28T18:32:08.597Z,4.50
2022-07-28T18:34:39.164Z,5.32
2022-07-28T18:37:07.000Z,5.32
2022-07-28T18:39:35.324Z,5.10
2022-07-28T18:42:03.095Z,5.22
2022-07-28T18:44:30.673Z,5.35
2022-07-28T18:46:58.303Z,4.70
2022-07-28T18:49:28.194Z,4.78
2022-07-28T18:52:05.339Z,5.10
2022-07-28T18:54:33.151Z,4.75
2022-07-28T18:57:00.661Z,5.30
2022-07-28T18:59:51.942Z,4.90
2022-07-28T19:02:20.203Z,5.93
2022-07-28T19:04:47.951Z,5.07
2022-07-28T19:07:16.084Z,5.00
2022-07-28T19:09:43.981Z,4.63
2022-07-28T19:12:11.815Z,5.07
2022-07-28T19:14:39.408Z,7.20
2022-07-28T19:17:08.619Z,10.43
2022-07-28T19:19:36.785Z,7.95
2022-07-28T19:22:06.417Z,8.02
2022-07-28T19:24:35.232Z,6.25
2022-07-28T19:27:05.254Z,6.13
2022-07-28T19:29:33.936Z,5.25
2022-07-28T19:32:06.592Z,5.00
2022-07-28T19:34:35.435Z,5.93
2022-07-28T19:37:03.608Z,6.03
2022-07-28T19:39:34.455Z,6.50
2022-07-28T19:42:01.976Z,5.65
2022-07-28T19:44:32.162Z,5.28
2022-07-28T19:47:00.673Z,5.50
2022-07-28T19:49:29.264Z,6.50
2022-07-28T19:51:58.855Z,5.47
2022-07-28T19:54:28.100Z,5.60
2022-07-28T19:56:55.786Z,5.68
2022-07-28T19:59:24.126Z,7.80
2022-07-28T20:01:51.925Z,7.63
2022-07-28T20:04:19.938Z,7.75
2022-07-28T20:06:52.068Z,8.35
2022-07-28T20:09:22.879Z,7.70
2022-07-28T20:11:50.978Z,7.25
2022-07-28T20:14:18.920Z,6.80
2022-07-28T20:16:46.972Z,6.93
2022-07-28T20:19:17.219Z,6.82
2022-07-28T20:21:44.883Z,7.25
2022-07-28T20:24:13.172Z,7.20
2022-07-28T20:26:42.128Z,6.60
2022-07-28T20:29:09.788Z,7.03
2022-07-28T20:31:37.627Z,6.95
2022-07-28T20:34:06.886Z,6.43
2022-07-28T20:36:35.349Z,7.18
2022-07-28T20:39:15.794Z,6.63
2022-07-28T20:41:50.728Z,6.40
2022-07-28T20:44:28.847Z,6.45
2022-07-28T20:47:02.423Z,6.35
2022-07-28T20:49:31.271Z,5.60
2022-07-28T20:51:59.192Z,6.00
2022-07-28T20:54:26.920Z,5.97
2022-07-28T20:56:54.510Z,6.50
2022-07-28T20:59:27.463Z,5.40
2022-07-28T21:01:56.163Z,5.97
2022-07-28T21:04:24.511Z,5.65
2022-07-28T21:06:56.572Z,6.07
2022-07-28T21:09:29.719Z,6.03
2022-07-28T21:12:01.003Z,5.57
2022-07-28T21:14:28.856Z,6.13
2022-07-28T21:16:56.713Z,5.65
2022-07-28T21:19:24.748Z,5.88
2022-07-28T21:21:52.393Z,5.30
2022-07-28T21:24:20.224Z,5.03
2022-07-28T21:26:49.551Z,5.68
2022-07-28T21:32:02.283Z,5.90
2022-07-28T21:34:34.857Z,5.90
2022-07-28T21:37:22.309Z,5.18
2022-07-28T21:39:49.994Z,5.43
2022-07-28T21:42:17.812Z,5.53
2022-07-28T21:44:46.690Z,4.93
2022-07-28T21:47:14.388Z,4.95
2022-07-28T21:49:41.917Z,4.90
2022-07-28T21:52:09.694Z,4.75
2022-07-28T21:54:37.277Z,4.68
2022-07-28T21:57:25.278Z,4.70
2022-07-28T21:59:54.233Z,4.97
2022-07-28T22:02:24.229Z,5.15
2022-07-28T22:04:53.249Z,5.10
2022-07-28T22:07:20.965Z,4.97
2022-07-28T22:09:48.490Z,5.50
2022-07-28T22:12:16.493Z,5.40
2022-07-28T22:14:44.088Z,4.82
2022-07-28T22:17:11.677Z,4.40
2022-07-28T22:19:58.576Z,5.65
2022-07-28T22:22:26.226Z,4.38
2022-07-28T22:24:54.067Z,5.00
2022-07-28T22:27:21.685Z,4.60
2022-07-28T22:29:51.442Z,4.25
2022-07-28T22:32:26.652Z,4.80
2022-07-28T22:34:56.327Z,4.07
2022-07-28T22:37:24.100Z,3.65
2022-07-28T22:39:51.870Z,4.93
2022-07-28T22:42:19.612Z,4.18
2022-07-28T22:44:47.355Z,4.32
2022-07-28T22:47:14.927Z,4.68
2022-07-28T22:49:43.963Z,5.00
2022-07-28T22:52:11.800Z,5.35
2022-07-28T22:54:40.483Z,5.30
2022-07-28T22:57:27.446Z,5.70
2022-07-28T22:59:54.996Z,5.28
2022-07-28T23:02:22.565Z,5.47
2022-07-28T23:04:51.960Z,6.20
2022-07-28T23:07:19.919Z,6.10
2022-07-28T23:10:08.299Z,6.05
2022-07-28T23:12:35.999Z,7.25
2022-07-28T23:15:03.725Z,6.07
2022-07-28T23:17:31.562Z,5.22
2022-07-28T23:20:01.006Z,5.93
2022-07-28T23:22:29.225Z,7.38
2022-07-28T23:24:58.311Z,7.95
2022-07-28T23:27:25.883Z,8.20
2022-07-28T23:29:53.518Z,7.32
2022-07-28T23:32:21.278Z,6.85
2022-07-28T23:34:49.712Z,7.07
2022-07-28T23:37:17.270Z,6.50
2022-07-28T23:39:46.407Z,6.97
2022-07-28T23:42:14.045Z,7.38
2022-07-28T23:44:43.162Z,6.88
2022-07-28T23:47:12.639Z,6.95
2022-07-28T23:49:40.251Z,6.72
2022-07-28T23:52:08.422Z,6.43
2022-07-28T23:54:36.201Z,7.22
2022-07-28T23:57:03.897Z,6.15
2022-07-28T23:59:31.680Z,6.18
